Time;durP1;ratioP1;P1;durP2;ratioP2;P2;SDS_P1;SDS_P2;PMS_P1;PMS_P2;Temp;Humidity;BMP_temperature;BMP_pressure;BME280_temperature;BME280_humidity;BME280_pressure;Samples;Min_cycle;Max_cycle;Signal;HPM_P1;HPM_P2
2022/10/07 00:01:45;;;;;;;0.27;0.20;;;19.30;99.90;;;19.40;50.02;102451.44;4903443;28;99553;-49
2022/10/07 00:04:11;;;;;;;0.30;0.13;;;19.30;99.90;;;19.39;50.28;102444.34;4900073;28;98020;-50
2022/10/07 00:06:37;;;;;;;0.33;0.30;;;19.20;99.90;;;19.39;50.02;102441.66;4896561;28;102741;-51
2022/10/07 00:09:03;;;;;;;0.10;0.10;;;19.30;99.90;;;19.41;50.01;102439.78;4903234;28;97734;-50
2022/10/07 00:11:28;;;;;;;0.33;0.20;;;19.30;99.90;;;19.43;49.97;102435.22;4898331;28;99455;-54
2022/10/07 00:14:01;;;;;;;0.20;0.10;;;19.30;99.90;;;19.43;50.16;102435.22;4901139;28;97856;-48
2022/10/07 00:16:32;;;;;;;1.60;0.30;;;19.40;99.90;;;19.41;50.14;102431.75;4922331;28;97939;-53
2022/10/07 00:19:01;;;;;;;0.33;0.10;;;19.30;99.90;;;19.39;49.99;102429.16;4929024;28;97398;-49
2022/10/07 00:21:31;;;;;;;0.30;0.23;;;19.30;99.90;;;19.37;49.84;102430.13;4917643;28;97529;-50
2022/10/07 00:23:58;;;;;;;0.83;0.30;;;19.20;99.90;;;19.33;50.31;102424.06;4930189;28;97201;-48
2022/10/07 00:26:28;;;;;;;0.17;0.10;;;19.20;99.90;;;19.31;50.53;102431.28;4927229;28;97266;-50
2022/10/07 00:28:55;;;;;;;0.10;0.00;;;19.20;99.90;;;19.29;50.22;102423.34;4928155;28;97103;-48
2022/10/07 00:31:26;;;;;;;0.20;0.20;;;19.10;99.90;;;19.25;50.68;102421.75;4925145;28;98104;-48
2022/10/07 00:33:53;;;;;;;0.10;0.00;;;19.10;99.90;;;19.22;50.73;102416.50;4919091;28;100209;-48
2022/10/07 00:36:23;;;;;;;0.10;0.10;;;19.00;99.90;;;19.16;50.62;102414.09;4934278;28;99485;-48
2022/10/07 00:38:51;;;;;;;0.30;0.30;;;18.90;99.90;;;19.12;50.69;102407.16;4926164;28;97410;-46
2022/10/07 00:41:21;;;;;;;0.30;0.10;;;18.80;99.90;;;19.09;50.70;102407.28;4922598;28;96840;-50
2022/10/07 00:43:47;;;;;;;0.40;0.20;;;18.80;99.90;;;19.06;50.95;102415.44;4922357;28;98568;-47
2022/10/07 00:46:36;;;;;;;0.10;0.10;;;18.70;99.90;;;19.02;50.96;102412.03;4932772;28;99572;-49
2022/10/07 00:49:07;;;;;;;0.10;0.10;;;18.70;99.90;;;18.98;51.17;102413.13;4946123;28;97015;-50
2022/10/07 00:51:35;;;;;;;1.90;0.30;;;18.60;99.90;;;18.94;51.07;102410.63;4924183;28;97223;-46
2022/10/07 00:54:05;;;;;;;0.10;0.10;;;18.60;99.90;;;18.84;51.42;102404.81;4929519;28;97397;-47
2022/10/07 00:56:33;;;;;;;0.33;0.33;;;18.40;99.30;;;18.71;52.05;102399.13;4929643;28;99099;-49
2022/10/07 00:59:00;;;;;;;0.23;0.10;;;18.10;99.90;;;18.64;52.01;102392.28;4941070;28;96693;-47
2022/10/07 01:01:25;;;;;;;0.10;0.10;;;18.00;99.90;;;18.57;52.48;102385.44;4940376;28;102802;-46
2022/10/07 01:03:53;;;;;;;0.10;0.10;;;17.90;99.90;;;18.55;52.72;102389.09;4939906;28;102963;-49
2022/10/07 01:06:19;;;;;;;0.60;0.20;;;17.90;99.90;;;18.47;52.58;102384.06;4937404;28;97042;-49
2022/10/07 01:08:47;;;;;;;0.10;0.10;;;17.80;99.90;;;18.44;52.57;102379.72;4931450;28;96980;-46
2022/10/07 01:11:50;;;;;;;0.10;0.10;;;17.80;99.90;;;18.40;53.09;102379.91;4941010;28;97147;-47
2022/10/07 01:14:45;;;;;;;0.10;0.10;;;17.70;99.90;;;18.35;53.13;102376.53;4924004;28;101758;-47
2022/10/07 01:17:49;;;;;;;0.20;0.03;;;17.70;99.90;;;18.29;52.98;102374.13;4923878;28;103068;-48
2022/10/07 01:20:32;;;;;;;0.20;0.20;;;17.50;99.90;;;18.24;53.50;102374.34;4908459;28;97349;-49
2022/10/07 01:23:24;;;;;;;0.73;0.20;;;17.50;99.90;;;18.17;53.27;102366.63;4911782;28;96767;-47
2022/10/07 01:26:19;;;;;;;0.30;0.30;;;17.40;99.90;;;18.13;53.91;102358.75;4923444;28;98043;-49
2022/10/07 01:29:02;;;;;;;0.60;0.30;;;17.40;99.90;;;18.18;53.67;102355.00;4920524;28;97429;-48
2022/10/07 01:31:39;;;;;;;0.40;0.17;;;17.50;99.90;;;18.17;53.47;102350.59;4915942;28;97215;-48
2022/10/07 01:34:08;;;;;;;0.70;0.30;;;17.50;99.90;;;18.17;53.66;102348.78;4939328;28;97449;-47
2022/10/07 01:36:35;;;;;;;0.10;0.10;;;17.50;99.90;;;18.13;53.43;102353.41;4926604;28;114941;-46
2022/10/07 01:39:08;;;;;;;0.10;0.10;;;17.40;99.90;;;18.05;53.72;102344.81;4914392;28;98433;-51
2022/10/07 01:41:37;;;;;;;0.00;0.00;;;17.30;99.90;;;17.97;53.63;102346.94;4918664;28;97430;-46
2022/10/07 01:44:03;;;;;;;0.03;0.03;;;17.10;99.90;;;17.96;53.88;102339.84;4923750;28;97377;-48
2022/10/07 01:46:30;;;;;;;0.30;0.20;;;17.10;99.90;;;17.90;53.97;102342.75;4921930;28;105099;-49
2022/10/07 01:48:56;;;;;;;0.23;0.20;;;17.00;99.90;;;17.82;54.23;102336.88;4916986;28;97170;-50
2022/10/07 01:51:27;;;;;;;0.10;0.10;;;16.90;99.90;;;17.72;54.00;102335.47;4921042;28;102721;-48
2022/10/07 01:54:16;;;;;;;0.20;0.20;;;16.80;99.90;;;17.69;54.86;102341.81;4922387;28;97690;-47
2022/10/07 01:57:03;;;;;;;0.97;0.30;;;16.70;99.90;;;17.70;54.77;102326.66;4924847;28;98007;-49
2022/10/07 01:59:59;;;;;;;0.10;0.10;;;16.80;99.90;;;17.70;54.69;102316.84;4929684;28;97323;-53
2022/10/07 02:02:58;;;;;;;0.10;0.10;;;16.90;99.90;;;17.68;54.11;102317.81;4920811;28;97210;-48
2022/10/07 02:05:45;;;;;;;0.37;0.30;;;16.80;99.90;;;17.61;55.14;102316.31;4918885;28;97211;-47
2022/10/07 02:08:51;;;;;;;0.23;0.23;;;16.70;99.90;;;17.47;54.11;102314.16;4919076;28;102984;-50
2022/10/07 02:11:26;;;;;;;0.20;0.13;;;16.60;99.90;;;17.37;55.14;102308.34;4916562;28;101281;-49
2022/10/07 02:14:00;;;;;;;0.10;0.10;;;16.30;99.90;;;17.27;56.19;102306.06;4918465;28;97142;-48
2022/10/07 02:17:09;;;;;;;0.00;0.00;;;16.10;99.90;;;17.34;55.96;102297.75;4928165;28;97337;-49
2022/10/07 02:19:40;;;;;;;0.37;0.20;;;16.30;99.90;;;17.33;55.29;102301.34;4916198;28;101917;-48
2022/10/07 02:22:08;;;;;;;1.00;0.10;;;16.40;99.90;;;17.38;55.75;102296.72;4924685;28;97186;-49
2022/10/07 02:24:36;;;;;;;0.93;0.10;;;16.50;99.90;;;17.43;55.62;102292.09;4936729;28;97102;-48
2022/10/07 02:27:12;;;;;;;0.17;0.10;;;16.60;99.90;;;17.48;55.41;102284.75;4929147;28;97129;-51
2022/10/07 02:29:41;;;;;;;0.43;0.20;;;16.70;99.90;;;17.47;55.15;102290.16;4925045;28;97429;-47
2022/10/07 02:32:12;;;;;;;1.23;0.20;;;16.60;99.90;;;17.51;55.56;102295.34;4930718;28;98622;-46
2022/10/07 02:34:42;;;;;;;0.10;0.10;;;16.60;99.90;;;17.58;55.21;102289.75;4925942;28;97338;-49
2022/10/07 02:37:17;;;;;;;0.30;0.10;;;16.70;99.90;;;17.62;55.14;102278.88;4921784;28;97071;-50
2022/10/07 02:39:45;;;;;;;0.37;0.20;;;16.80;99.90;;;17.66;54.83;102274.31;4929895;28;97159;-49
2022/10/07 02:42:24;;;;;;;0.73;0.20;;;16.90;99.90;;;17.74;55.01;102285.56;4914777;28;96792;-51
2022/10/07 02:45:01;;;;;;;0.03;0.03;;;17.00;99.90;;;17.77;54.55;102280.09;4919296;28;97302;-46
2022/10/07 02:47:41;;;;;;;0.40;0.10;;;17.10;99.90;;;17.73;54.18;102279.38;4916749;28;97455;-55
2022/10/07 02:50:12;;;;;;;0.00;0.00;;;16.90;99.90;;;17.72;54.61;102282.09;4928195;28;101857;-47
2022/10/07 02:52:40;;;;;;;0.73;0.10;;;16.80;99.90;;;17.70;54.71;102278.63;4911667;28;98358;-47
2022/10/07 02:55:09;;;;;;;0.20;0.10;;;16.80;99.90;;;17.69;54.97;102271.56;4920444;28;97341;-47
2022/10/07 02:57:44;;;;;;;0.60;0.10;;;16.80;99.90;;;17.70;54.73;102262.63;4927442;28;97236;-49
2022/10/07 03:00:11;;;;;;;0.13;0.13;;;16.90;99.90;;;17.74;54.65;102264.22;4915614;28;100449;-48
2022/10/07 03:02:57;;;;;;;0.57;0.37;;;17.00;99.90;;;17.83;54.31;102263.88;4929906;28;103031;-51
2022/10/07 03:05:24;;;;;;;0.10;0.10;;;17.10;99.90;;;17.87;53.98;102262.81;4941321;28;97572;-49
2022/10/07 03:08:05;;;;;;;0.20;0.20;;;17.20;99.90;;;17.91;54.25;102256.41;4928013;28;97230;-50
2022/10/07 03:10:31;;;;;;;0.10;0.10;;;17.30;99.90;;;17.95;54.20;102252.69;4934877;28;98306;-47
2022/10/07 03:12:57;;;;;;;0.20;0.20;;;17.40;99.90;;;17.97;53.73;102250.81;4929917;28;97581;-48
2022/10/07 03:15:24;;;;;;;0.07;0.00;;;17.40;99.90;;;17.96;53.84;102254.44;4925822;28;115296;-49
2022/10/07 03:17:50;;;;;;;0.10;0.10;;;17.30;99.90;;;17.96;53.44;102249.09;4917330;28;97638;-46
2022/10/07 03:20:17;;;;;;;0.10;0.10;;;17.40;99.90;;;17.97;53.80;102245.47;4931721;28;98055;-50
2022/10/07 03:22:43;;;;;;;0.27;0.27;;;17.30;99.90;;;17.93;53.39;102249.19;4919029;28;97020;-51
2022/10/07 03:25:10;;;;;;;3.17;0.10;;;17.30;99.90;;;17.91;54.21;102240.38;4922486;28;97286;-47
2022/10/07 03:27:37;;;;;;;0.30;0.10;;;17.20;99.90;;;17.89;53.87;102242.25;4934203;28;97269;-46
2022/10/07 03:30:04;;;;;;;0.50;0.37;;;17.20;99.90;;;17.91;54.14;102235.03;4935175;28;98214;-45
2022/10/07 03:32:30;;;;;;;0.17;0.17;;;17.20;99.90;;;17.92;54.04;102231.44;4938834;28;97349;-45
2022/10/07 03:34:56;;;;;;;0.20;0.20;;;17.30;99.90;;;17.96;53.53;102238.41;4939825;28;96971;-45
2022/10/07 03:37:23;;;;;;;0.00;0.00;;;17.30;99.90;;;17.97;53.89;102229.47;4937487;28;106158;-45
2022/10/07 03:39:50;;;;;;;0.30;0.30;;;17.30;99.90;;;18.00;53.80;102240.00;4927528;28;98435;-45
2022/10/07 03:42:16;;;;;;;0.00;0.00;;;17.40;99.90;;;17.98;53.73;102233.88;4938371;28;97344;-48
2022/10/07 03:44:42;;;;;;;0.60;0.20;;;17.40;99.90;;;17.98;53.87;102233.88;4941047;28;107573;-45
2022/10/07 03:47:07;;;;;;;0.30;0.10;;;17.30;99.90;;;18.03;53.48;102231.88;4937664;28;97447;-45
2022/10/07 03:49:34;;;;;;;0.00;0.00;;;17.40;99.90;;;18.07;53.70;102232.59;4927932;28;97001;-46
2022/10/07 03:52:02;;;;;;;0.27;0.10;;;17.50;99.90;;;18.09;53.50;102234.28;4927226;28;97083;-48
2022/10/07 03:54:28;;;;;;;0.13;0.13;;;17.50;99.90;;;18.10;53.28;102235.16;4925823;28;97309;-50
2022/10/07 03:56:54;;;;;;;0.20;0.20;;;17.50;99.90;;;18.10;53.11;102230.69;4933571;28;97219;-47
2022/10/07 03:59:20;;;;;;;0.00;0.00;;;17.50;99.90;;;18.10;53.52;102225.34;4925693;28;98085;-49
2022/10/07 04:01:46;;;;;;;0.30;0.20;;;17.50;99.90;;;18.13;53.05;102233.22;4919450;28;97006;-50
2022/10/07 04:04:12;;;;;;;0.33;0.20;;;17.50;99.90;;;18.12;53.12;102227.94;4932428;28;97104;-51
2022/10/07 04:06:40;;;;;;;0.10;0.10;;;17.50;99.90;;;18.00;53.41;102228.47;4929536;28;98886;-49
2022/10/07 04:09:06;;;;;;;0.00;0.00;;;17.30;99.90;;;17.90;53.80;102222.63;4924742;28;97446;-51
2022/10/07 04:11:32;;;;;;;0.30;0.00;;;17.00;99.90;;;17.87;53.97;102222.75;4926193;28;99308;-48
2022/10/07 04:13:59;;;;;;;0.13;0.10;;;17.00;99.90;;;17.82;52.89;102225.63;4935885;28;97125;-49
2022/10/07 04:16:26;;;;;;;0.13;0.10;;;17.00;99.90;;;17.76;54.16;102227.66;4934456;28;97283;-48
2022/10/07 04:18:55;;;;;;;0.17;0.17;;;16.90;99.90;;;17.73;54.41;102217.13;4931217;28;102861;-47
2022/10/07 04:21:22;;;;;;;0.20;0.20;;;16.90;99.90;;;17.81;54.53;102212.34;4928661;28;98141;-52
2022/10/07 04:23:48;;;;;;;0.10;0.10;;;17.00;99.90;;;17.91;54.07;102219.03;4918210;28;97265;-49
2022/10/07 04:26:14;;;;;;;0.10;0.10;;;17.30;99.90;;;18.00;53.75;102213.31;4928431;28;97178;-46
2022/10/07 04:28:41;;;;;;;0.10;0.10;;;17.50;99.90;;;18.11;53.39;102211.06;4918240;28;98722;-51
2022/10/07 04:31:08;;;;;;;0.20;0.20;;;17.70;99.90;;;18.22;53.12;102212.38;4916652;28;97295;-51
2022/10/07 04:33:38;;;;;;;0.97;0.10;;;17.80;99.90;;;18.29;53.10;102209.38;4924534;28;97392;-49
2022/10/07 04:36:07;;;;;;;1.53;0.20;;;17.90;99.90;;;18.33;52.38;102205.66;4926142;28;96912;-50
2022/10/07 04:38:33;;;;;;;1.03;0.20;;;18.00;99.90;;;18.35;52.36;102208.25;4913718;28;97433;-48
2022/10/07 04:41:06;;;;;;;0.10;0.10;;;18.00;99.90;;;18.32;52.80;102203.03;4918433;28;97329;-49
2022/10/07 04:43:32;;;;;;;0.10;0.10;;;17.80;99.90;;;18.27;52.27;102194.38;4927829;28;97235;-46
2022/10/07 04:46:08;;;;;;;0.33;0.33;;;17.70;99.90;;;18.24;53.16;102194.50;4932173;28;96980;-46
2022/10/07 04:48:35;;;;;;;0.10;0.07;;;17.70;99.90;;;18.29;52.95;102189.81;4924449;28;96899;-48
2022/10/07 04:51:07;;;;;;;0.10;0.10;;;17.80;99.90;;;18.37;52.66;102185.91;4927860;28;97252;-49
2022/10/07 04:53:34;;;;;;;0.23;0.20;;;17.90;99.90;;;18.44;52.44;102186.47;4908188;28;97306;-48
2022/10/07 04:56:00;;;;;;;0.20;0.20;;;18.10;99.90;;;18.47;52.18;102186.34;4928956;28;97705;-47
2022/10/07 04:58:27;;;;;;;0.10;0.10;;;18.10;99.90;;;18.48;51.93;102185.41;4923982;28;102995;-48
2022/10/07 05:00:55;;;;;;;0.30;0.30;;;18.10;99.90;;;18.45;51.77;102188.22;4934789;28;101447;-54
2022/10/07 05:03:23;;;;;;;0.10;0.10;;;18.00;99.90;;;18.38;51.87;102181.41;4921705;28;98140;-49
2022/10/07 05:05:53;;;;;;;0.10;0.10;;;17.90;99.90;;;18.28;52.16;102180.09;4920201;28;97523;-46
2022/10/07 05:08:23;;;;;;;0.87;0.60;;;17.70;99.90;;;18.21;52.53;102191.94;4923928;28;98929;-47
2022/10/07 05:10:54;;;;;;;0.10;0.10;;;17.50;99.90;;;18.09;53.28;102175.53;4924798;28;97224;-47
2022/10/07 05:13:22;;;;;;;0.23;0.20;;;17.30;99.90;;;17.96;52.79;102179.66;4923337;28;97089;-48
2022/10/07 05:15:49;;;;;;;0.03;0.03;;;17.10;99.90;;;17.94;53.86;102180.63;4919121;28;97399;-51
2022/10/07 05:18:16;;;;;;;0.00;0.00;;;17.10;99.90;;;17.94;53.66;102176.19;4929169;28;97670;-47
2022/10/07 05:20:43;;;;;;;0.23;0.10;;;17.20;99.90;;;17.95;53.74;102177.94;4931560;28;97136;-50
2022/10/07 05:23:09;;;;;;;0.07;0.07;;;17.20;99.90;;;18.00;53.68;102170.59;4925126;28;99609;-49
2022/10/07 05:25:34;;;;;;;0.03;0.03;;;17.40;99.90;;;18.10;53.19;102171.94;4919841;28;97397;-50
2022/10/07 05:28:00;;;;;;;0.30;0.10;;;17.60;99.90;;;18.21;52.92;102167.91;4924561;28;96835;-49
2022/10/07 05:30:26;;;;;;;0.30;0.10;;;17.80;99.90;;;18.26;52.76;102171.28;4927618;28;99204;-53
2022/10/07 05:32:53;;;;;;;0.40;0.20;;;17.90;99.90;;;18.25;51.40;102164.19;4930478;28;97749;-51
2022/10/07 05:35:20;;;;;;;0.00;0.00;;;17.90;98.40;;;18.17;52.76;102177.00;4920345;28;97115;-48
2022/10/07 05:37:47;;;;;;;0.20;0.20;;;17.60;99.90;;;18.06;52.79;102170.31;4922833;28;98674;-48
2022/10/07 05:40:13;;;;;;;0.00;0.00;;;17.30;99.90;;;17.94;52.96;102168.19;4932610;28;97436;-51
2022/10/07 05:42:38;;;;;;;0.10;0.10;;;17.10;99.90;;;17.82;53.75;102171.38;4924208;28;97225;-49
2022/10/07 05:45:05;;;;;;;0.30;0.10;;;16.90;99.90;;;17.78;53.73;102172.41;4919120;28;100015;-48
2022/10/07 05:47:33;;;;;;;1.13;0.30;;;16.90;99.90;;;17.73;53.60;102171.75;4926432;28;98644;-45
2022/10/07 05:49:59;;;;;;;0.33;0.20;;;16.80;99.90;;;17.70;53.47;102166.53;4926350;28;97396;-50
2022/10/07 05:52:25;;;;;;;0.17;0.17;;;16.80;99.90;;;17.67;53.72;102171.97;4930526;28;97222;-49
2022/10/07 05:54:51;;;;;;;0.20;0.20;;;16.80;99.90;;;17.63;53.90;102165.00;4925851;28;99345;-49
2022/10/07 05:57:17;;;;;;;0.10;0.10;;;16.80;99.90;;;17.59;54.58;102166.94;4936412;28;98070;-50
2022/10/07 05:59:43;;;;;;;0.17;0.17;;;16.70;99.90;;;17.60;54.46;102159.81;4930886;28;97401;-48
2022/10/07 06:02:14;;;;;;;0.57;0.30;;;16.70;99.90;;;17.58;54.64;102157.22;4934720;28;96994;-50
2022/10/07 06:04:43;;;;;;;0.60;0.10;;;16.70;99.90;;;17.61;54.79;102161.53;4931203;28;97335;-46
2022/10/07 06:07:09;;;;;;;0.23;0.20;;;16.80;99.90;;;17.74;54.50;102146.78;4935095;28;98136;-50
2022/10/07 06:15:08;;;;;;;0.10;0.03;;;17.40;99.90;;;17.98;53.65;102151.09;4931221;28;97807;-48
2022/10/07 06:17:36;;;;;;;0.20;0.10;;;17.50;99.90;;;17.99;53.33;102152.84;4926841;28;97829;-48
2022/10/07 06:20:02;;;;;;;0.30;0.10;;;17.50;99.90;;;17.95;53.41;102145.91;4931791;28;98129;-48
2022/10/07 06:22:28;;;;;;;0.03;0.03;;;17.30;99.90;;;17.90;53.75;102153.22;4922325;28;97285;-48
2022/10/07 06:24:57;;;;;;;0.03;0.03;;;17.20;99.90;;;17.88;53.91;102152.41;4925294;28;110404;-49
2022/10/07 06:27:23;;;;;;;0.13;0.13;;;17.10;99.90;;;17.89;53.99;102151.47;4933534;28;99760;-53
2022/10/07 06:29:49;;;;;;;0.50;0.30;;;17.20;99.90;;;17.89;53.47;102140.81;4930737;28;97164;-51
2022/10/07 06:32:15;;;;;;;0.93;0.20;;;17.20;99.90;;;17.86;53.70;102154.28;4928293;28;96874;-51
2022/10/07 06:34:41;;;;;;;0.30;0.20;;;17.10;99.90;;;17.84;53.40;102150.81;4920236;28;97059;-50
2022/10/07 06:37:07;;;;;;;0.57;0.20;;;17.10;99.90;;;17.78;53.71;102148.41;4924230;28;112623;-47
2022/10/07 06:39:32;;;;;;;0.17;0.10;;;17.00;99.90;;;17.72;54.07;102148.66;4926662;28;107779;-51
2022/10/07 06:41:58;;;;;;;0.10;0.10;;;16.80;99.90;;;17.67;51.37;102150.63;4921038;28;106843;-51
2022/10/07 06:44:26;;;;;;;1.10;0.30;;;16.80;99.90;;;17.59;54.22;102152.75;4921982;28;96867;-46
2022/10/07 06:46:51;;;;;;;0.00;0.00;;;16.70;99.90;;;17.69;53.78;102143.47;4922166;28;102503;-50
2022/10/07 06:49:17;;;;;;;1.23;0.43;;;16.90;99.90;;;17.68;54.04;102152.38;4913013;28;105259;-49
2022/10/07 06:51:43;;;;;;;0.10;0.10;;;16.90;99.90;;;17.73;54.40;102150.41;4920563;28;97294;-47
2022/10/07 06:54:09;;;;;;;0.20;0.20;;;17.00;99.90;;;17.72;54.00;102146.00;4928346;28;97132;-49
2022/10/07 06:56:34;;;;;;;0.17;0.17;;;17.00;99.90;;;17.65;50.85;102147.13;4918101;28;97421;-47
2022/10/07 06:59:02;;;;;;;0.17;0.10;;;16.90;99.90;;;17.60;54.47;102154.47;4931873;28;97183;-53
2022/10/07 07:01:28;;;;;;;0.37;0.07;;;16.70;99.90;;;17.61;49.74;102156.22;4921426;28;97226;-49
2022/10/07 07:03:53;;;;;;;0.23;0.03;;;16.90;99.90;;;17.66;54.49;102155.09;4919365;28;104152;-48
2022/10/07 07:06:19;;;;;;;1.07;0.37;;;16.90;99.90;;;17.62;52.75;102164.16;4933447;28;97916;-46
2022/10/07 07:08:48;;;;;;;0.20;0.10;;;16.90;99.90;;;17.57;53.07;102170.63;4928496;28;102586;-49
2022/10/07 07:13:59;;;;;;;1.23;0.30;;;16.90;99.90;;;17.69;54.10;102156.81;4916463;28;97173;-45
2022/10/07 07:16:25;;;;;;;0.23;0.23;;;17.00;99.90;;;17.69;53.20;102156.81;4920651;28;97080;-49
2022/10/07 07:18:56;;;;;;;0.10;0.00;;;17.10;99.90;;;17.67;51.82;102153.31;4923082;28;97067;-49
2022/10/07 07:21:24;;;;;;;0.10;0.10;;;17.00;99.90;;;17.70;51.90;102161.22;4931251;28;97269;-49
2022/10/07 07:23:50;;;;;;;0.17;0.17;;;17.00;99.90;;;17.73;54.34;102155.72;4926237;28;97705;-49
2022/10/07 07:26:19;;;;;;;0.10;0.10;;;17.00;99.90;;;17.72;53.40;102151.34;4925985;28;98496;-49
2022/10/07 07:28:58;;;;;;;0.00;0.00;;;17.00;99.90;;;17.77;51.93;102160.88;4922700;28;97126;-49
2022/10/07 07:31:25;;;;;;;1.50;0.10;;;17.10;99.90;;;18.01;53.69;102153.63;4932726;28;97479;-49
2022/10/07 07:33:51;;;;;;;0.10;0.10;;;17.50;99.90;;;18.09;46.34;102147.97;4925253;28;97791;-47
2022/10/07 07:36:21;;;;;;;0.00;0.00;;;17.80;99.90;;;18.25;53.05;102153.50;4930153;28;97622;-49
2022/10/07 07:38:59;;;;;;;0.30;0.20;;;17.90;99.90;;;18.23;52.62;102160.72;4930182;28;97392;-52
2022/10/07 07:41:29;;;;;;;0.20;0.20;;;17.90;99.90;;;18.35;48.68;102149.47;4928589;28;97040;-48
2022/10/07 07:43:58;;;;;;;0.20;0.20;;;18.10;99.90;;;18.37;51.41;102147.59;4920777;28;97438;-50
2022/10/07 07:46:28;;;;;;;0.10;0.10;;;18.10;99.90;;;18.58;51.85;102151.13;4919584;28;99558;-45
2022/10/07 07:48:55;;;;;;;0.23;0.10;;;18.40;99.90;;;18.69;48.91;102149.72;4942077;28;102413;-48
2022/10/07 07:51:21;;;;;;;0.17;0.10;;;18.60;99.90;;;18.81;51.06;102142.97;4931604;28;97143;-50
2022/10/07 07:53:51;;;;;;;0.20;0.10;;;18.70;99.90;;;18.88;50.98;102143.53;4918626;28;98664;-53
2022/10/07 07:56:18;;;;;;;0.20;0.20;;;18.80;99.90;;;18.92;50.57;102147.78;4927940;28;97704;-46
2022/10/07 07:58:45;;;;;;;0.33;0.10;;;18.90;99.90;;;19.02;50.42;102143.75;4934388;28;97142;-50
2022/10/07 08:01:14;;;;;;;0.13;0.13;;;19.00;99.90;;;19.12;50.15;102147.72;4922622;28;97323;-49
2022/10/07 08:03:43;;;;;;;0.10;0.10;;;19.20;99.90;;;19.17;50.02;102148.34;4925880;28;97275;-48
2022/10/07 08:06:11;;;;;;;0.50;0.43;;;19.20;99.90;;;19.23;49.67;102139.16;4928580;28;98091;-48
2022/10/07 08:08:37;;;;;;;0.30;0.27;;;19.30;99.90;;;19.28;49.53;102134.47;4917135;28;99123;-52
2022/10/07 08:11:14;;;;;;;0.73;0.10;;;19.40;99.90;;;19.35;49.52;102130.53;4919624;28;102130;-47
2022/10/07 08:13:40;;;;;;;1.07;0.27;;;19.50;99.90;;;19.42;49.15;102134.66;4928021;28;97120;-52
2022/10/07 08:16:27;;;;;;;0.43;0.27;;;19.50;99.90;;;19.41;49.09;102132.06;4929374;28;97372;-45
2022/10/07 08:18:55;;;;;;;0.30;0.27;;;19.50;99.90;;;19.46;49.03;102130.00;4928097;28;102863;-52
2022/10/07 08:21:25;;;;;;;0.30;0.13;;;19.50;99.90;;;19.50;48.84;102128.91;4925273;28;97565;-47
2022/10/07 08:23:57;;;;;;;0.40;0.20;;;19.60;99.90;;;19.55;48.62;102124.25;4933045;28;97065;-50
2022/10/07 08:26:24;;;;;;;0.60;0.10;;;19.60;99.90;;;19.57;48.61;102128.56;4922778;28;97653;-46
2022/10/07 08:28:51;;;;;;;0.10;0.10;;;19.70;99.90;;;19.59;48.62;102128.50;4926662;28;100553;-48
2022/10/07 08:31:18;;;;;;;0.63;0.10;;;19.70;99.90;;;19.57;48.54;102119.69;4932923;28;111014;-51
2022/10/07 08:33:48;;;;;;;0.90;0.40;;;19.60;99.90;;;19.49;47.14;102116.47;4930912;28;97269;-51
2022/10/07 08:36:20;;;;;;;0.23;0.20;;;19.50;97.70;;;19.05;43.34;102116.84;4929861;28;97812;-46
2022/10/07 08:38:46;;;;;;;0.60;0.60;;;19.00;96.90;;;18.61;45.09;102114.44;4937235;28;97080;-49
2022/10/07 08:41:34;;;;;;;1.10;0.40;;;18.30;98.30;;;18.44;48.62;102122.34;4943002;28;96668;-46
2022/10/07 08:44:31;;;;;;;0.63;0.20;;;17.90;99.70;;;18.67;50.06;102114.19;4939052;28;96986;-49
2022/10/07 08:47:33;;;;;;;0.20;0.20;;;18.30;99.90;;;18.82;50.85;102117.09;4935700;28;101773;-48
2022/10/07 08:50:22;;;;;;;0.20;0.17;;;18.60;99.90;;;18.89;50.50;102113.16;4932713;28;101740;-50
2022/10/07 08:52:58;;;;;;;1.13;0.20;;;18.80;99.90;;;19.01;50.20;102107.25;4922924;28;97237;-52
2022/10/07 08:55:40;;;;;;;0.40;0.20;;;18.90;99.90;;;19.10;49.01;102104.13;4930234;28;97338;-50
2022/10/07 08:58:29;;;;;;;0.20;0.20;;;19.10;99.90;;;19.11;49.75;102108.53;4922737;28;100588;-53
2022/10/07 09:01:21;;;;;;;0.43;0.30;;;19.00;99.90;;;19.03;45.78;102094.66;4921658;28;102633;-49
2022/10/07 09:03:52;;;;;;;1.13;0.37;;;19.00;98.40;;;19.00;49.45;102092.13;4924117;28;97542;-49
2022/10/07 09:06:38;;;;;;;0.50;0.20;;;18.80;99.90;;;19.07;50.01;102090.88;4916266;28;97538;-51
2022/10/07 09:09:23;;;;;;;0.43;0.30;;;18.90;99.90;;;19.06;50.08;102094.50;4902571;28;101984;-52
2022/10/07 09:11:50;;;;;;;2.10;0.30;;;18.80;99.90;;;19.09;48.75;102086.31;4913482;28;97726;-53
2022/10/07 09:14:31;;;;;;;0.53;0.10;;;18.90;99.80;;;19.10;47.66;102080.06;4909400;28;101306;-48
2022/10/07 09:17:05;;;;;;;0.37;0.30;;;18.90;99.70;;;19.14;50.06;102087.00;4927180;28;97755;-50
2022/10/07 09:20:10;;;;;;;0.40;0.33;;;19.00;99.90;;;19.20;47.58;102075.97;4905372;28;99347;-46
2022/10/07 09:22:41;;;;;;;0.03;0.03;;;19.10;99.30;;;19.23;49.76;102065.13;4897741;28;97627;-51
2022/10/07 09:25:10;;;;;;;0.43;0.30;;;19.10;99.90;;;19.24;49.60;102065.97;4909070;28;97563;-51
2022/10/07 09:27:36;;;;;;;0.80;0.40;;;19.10;99.90;;;19.12;46.35;102062.13;4903695;28;100167;-48
2022/10/07 09:30:03;;;;;;;2.73;0.77;;;19.00;98.50;;;19.01;49.79;102059.09;4906934;28;105250;-51
2022/10/07 09:32:29;;;;;;;6.80;1.20;;;18.80;99.90;;;18.82;45.75;102052.94;4898382;28;98982;-47
2022/10/07 09:34:55;;;;;;;0.63;0.23;;;18.60;98.60;;;18.93;50.44;102056.78;4897124;28;113594;-47
2022/10/07 09:37:26;;;;;;;0.03;0.00;;;18.70;99.90;;;19.03;50.16;102052.75;4897488;28;97501;-54
2022/10/07 09:40:20;;;;;;;0.20;0.20;;;18.80;99.90;;;19.15;49.39;102051.28;4895097;28;102841;-51
2022/10/07 09:42:48;;;;;;;0.10;0.10;;;19.00;99.90;;;19.22;49.93;102047.34;4895062;28;100560;-47
2022/10/07 09:45:33;;;;;;;0.37;0.20;;;19.20;99.90;;;19.29;49.02;102048.78;4896904;28;99667;-50
2022/10/07 09:48:07;;;;;;;1.27;0.40;;;19.30;99.90;;;19.25;49.07;102047.22;4894901;28;99307;-50
2022/10/07 09:50:42;;;;;;;0.10;0.10;;;19.20;99.90;;;19.32;49.58;102040.59;4894670;28;97843;-53
2022/10/07 09:53:24;;;;;;;0.50;0.50;;;19.30;99.90;;;19.37;47.06;102035.00;4901793;28;96992;-51
2022/10/07 09:55:53;;;;;;;1.10;0.70;;;19.30;99.50;;;19.19;45.06;102039.47;4892956;28;98461;-52
2022/10/07 09:58:29;;;;;;;0.77;0.30;;;19.10;97.80;;;19.19;49.79;102039.47;4921942;28;100728;-47
2022/10/07 10:01:00;;;;;;;0.20;0.13;;;19.00;99.90;;;19.23;49.78;102038.38;4895278;28;102174;-47
2022/10/07 10:03:35;;;;;;;2.47;0.20;;;19.10;99.90;;;19.28;49.00;102031.00;4904452;28;97658;-48
2022/10/07 10:06:06;;;;;;;0.43;0.10;;;19.20;99.90;;;19.35;49.43;102030.66;4904904;28;98815;-45
2022/10/07 10:08:37;;;;;;;0.30;0.30;;;19.40;99.90;;;19.36;47.68;102032.41;4906677;28;97569;-51
2022/10/07 10:11:27;;;;;;;2.07;0.27;;;19.40;98.80;;;19.43;49.13;102015.09;4902320;28;97937;-49
2022/10/07 10:13:54;;;;;;;0.70;0.40;;;19.40;99.90;;;19.43;46.94;102017.78;4894622;28;103278;-49
2022/10/07 10:16:35;;;;;;;0.20;0.20;;;19.40;98.80;;;19.35;48.94;102017.28;4889653;28;99291;-49
2022/10/07 10:19:04;;;;;;;2.40;0.57;;;19.30;99.90;;;19.40;46.95;102010.78;4898675;28;97354;-48
2022/10/07 10:21:40;;;;;;;0.67;0.20;;;19.40;99.30;;;19.35;46.64;102009.25;4894409;28;99583;-50
2022/10/07 10:24:13;;;;;;;0.30;0.13;;;19.30;98.80;;;19.30;46.34;101997.00;4897715;28;97956;-54
2022/10/07 10:27:02;;;;;;;0.23;0.20;;;19.20;98.60;;;19.38;48.67;101987.69;4898602;28;97851;-52
2022/10/07 10:30:16;;;;;;;0.10;0.10;;;19.30;99.50;;;19.49;46.85;101986.22;4902574;28;97058;-45
2022/10/07 10:33:30;;;;;;;0.70;0.40;;;19.50;99.80;;;19.50;49.18;101976.38;4841775;28;104302;-47
2022/10/07 10:36:19;;;;;;;0.17;0.17;;;19.50;99.90;;;19.61;49.13;101974.03;4893218;28;101875;-53
2022/10/07 10:39:00;;;;;;;0.23;0.23;;;19.70;99.90;;;19.64;46.30;101968.50;4898300;28;97914;-50